This is the latest recevied weather packets stored in our database for station/object RUSSARO. If no packets are shown the sender has not sent any weather packets the latest 10 day(s).
| Time | Temp. | Humidity | Pressure | Rain* | Wind** | Luminosity | Snow |
|---|---|---|---|---|---|---|---|
| 1777644421 | 7.78° C | 79% | 1019.6 hPa | 0 mm | - | - | - |
| 1777643221 | 8.33° C | 76% | 1019.8 hPa | 0 mm | - | - | - |
| 1777642022 | 10° C | 70% | 1020.1 hPa | 0 mm | - | - | - |
| 1777640821 | 10° C | 70% | 1020.3 hPa | 0 mm | - | - | - |
| 1777639621 | 10.56° C | 66% | 1020.5 hPa | 0 mm | - | - | - |
| 1777638421 | 10.56° C | 66% | 1020.7 hPa | 0 mm | - | - | - |
| 1777637221 | 10° C | 69% | 1021 hPa | 0 mm | - | - | - |
| 1777636021 | 9.44° C | 71% | 1021.1 hPa | 0 mm | - | - | - |
| 1777634821 | 10° C | 69% | 1021.2 hPa | 0 mm | - | - | - |
| 1777633621 | 10.56° C | 67% | 1021.2 hPa | 0 mm | - | - | - |
| 1777632420 | 10.56° C | 67% | 1021.3 hPa | 0 mm | - | - | - |
| 1777631221 | 10° C | 67% | 1021.4 hPa | 0 mm | - | - | - |
| 1777630021 | 10° C | 69% | 1021.5 hPa | 0 mm | - | - | - |
| 1777628821 | 10° C | 69% | 1021.7 hPa | 0 mm | - | - | - |
| 1777627621 | 9.44° C | 73% | 1021.8 hPa | 0 mm | - | - | - |
| 1777626420 | 9.44° C | 71% | 1022 hPa | 0 mm | - | - | - |
| 1777625221 | 10.56° C | 67% | 1022 hPa | 0 mm | - | - | - |
| 1777624021 | 11.67° C | 64% | 1022 hPa | 0 mm | - | - | - |
| 1777622823 | 10.56° C | 67% | 1022.1 hPa | 0 mm | - | - | - |
| 1777621620 | 10° C | 69% | 1022.1 hPa | 0 mm | - | - | - |
| 1777620420 | 10° C | 69% | 1022.1 hPa | 0 mm | - | - | - |
| 1777619220 | 10° C | 70% | 1022.1 hPa | 0 mm | - | - | - |
| 1777618020 | 8.89° C | 74% | 1022.1 hPa | 0 mm | - | - | - |
| 1777616821 | 8.33° C | 77% | 1022.1 hPa | 0 mm | - | - | - |
| 1777615620 | 8.33° C | 75% | 1022 hPa | 0 mm | - | - | - |
* Rain latest hour (hover to see other rain measurements)
** Current wind speed in m/s (hover to see current wind gust speed)